| time (UTC) | temp C | wind direction | speed KPH | gust KPH | rain 1hr cm | rain 24hr cm | rain mn cm | humidity % | barometer mb |
| 20260505165205 | 22 | 269 | 4.8 | 9.7 | 0.00 | 0.00 | 0.00 | 50 | 1016.9 |
| 20260505164204 | 22 | 257 | 3.2 | 4.8 | 0.00 | 0.00 | 0.00 | 51 | 1016.9 |
| 20260505163200 | 23 | 273 | 1.6 | 1.6 | 0.00 | 0.00 | 0.00 | 53 | 1017.0 |
| 20260505162201 | 22 | 278 | 3.2 | 3.2 | 0.00 | 0.00 | 0.00 | 50 | 1017.0 |
| 20260505161200 | 22 | 283 | 8.0 | 12.9 | 0.00 | 0.00 | 0.00 | 53 | 1017.0 |
| 20260505160155 | 22 | 170 | 4.8 | 8.0 | 0.00 | 0.00 | 0.00 | 54 | 1016.9 |
| 20260505153152 | 22 | 234 | 3.2 | 4.8 | 0.00 | 0.00 | 0.00 | 56 | 1016.8 |
| 20260505152150 | 21 | 265 | 12.9 | 16.1 | 0.00 | 0.00 | 0.00 | 55 | 1016.8 |
| 20260505151149 | 21 | 256 | 3.2 | 3.2 | 0.00 | 0.00 | 0.00 | 57 | 1017.0 |
| 20260505150148 | 21 | 284 | 9.7 | 11.3 | 0.00 | 0.00 | 0.00 | 55 | 1016.8 |
| 20260505140148 | 20 | 126 | 4.8 | 4.8 | 0.00 | 0.00 | 0.00 | 57 | 1017.1 |
| 20260505130135 | 18 | 260 | 0.0 | 1.6 | 0.00 | 0.00 | 0.00 | 65 | 1016.9 |
| 20260505124133 | 17 | 289 | 0.0 | 1.6 | 0.00 | 0.00 | 0.00 | 68 | 1016.7 |
| 20260505123132 | 16 | 197 | 3.2 | 3.2 | 0.00 | 0.00 | 0.00 | 71 | 1016.7 |
| 20260505122132 | 15 | 316 | 1.6 | 1.6 | 0.00 | 0.00 | 0.00 | 78 | 1016.7 |
| 20260505121131 | 14 | 315 | 0.0 | 1.6 | 0.00 | 0.00 | 0.00 | 81 | 1016.5 |
| 20260505120129 | 13 | 315 | 1.6 | 1.6 | 0.00 | 0.00 | 0.00 | 82 | 1016.6 |
| 20260505115127 | 13 | 312 | 0.0 | 1.6 | 0.00 | 0.00 | 0.00 | 80 | 1016.2 |
| 20260505114126 | 13 | 312 | 0.0 | 1.6 | 0.00 | 0.00 | 0.00 | 78 | 1016.4 |
| 20260505113125 | 13 | 310 | 1.6 | 1.6 | 0.00 | 0.00 | 0.00 | 76 | 1016.0 |
| 20260505112120 | 12 | 310 | 1.6 | 1.6 | 0.00 | 0.00 | 0.00 | 76 | 1016.0 |
| 20260505111115 | 12 | 307 | 1.6 | 1.6 | 0.00 | 0.00 | 0.00 | 80 | 1015.9 |
| 20260505110115 | 12 | 310 | 0.0 | 0.0 | 0.00 | 0.00 | 0.00 | 79 | 1015.8 |
| 20260505102108 | 12 | 310 | 1.6 | 1.6 | 0.00 | 0.00 | 0.00 | 75 | 1015.6 |
| 20260505101108 | 12 | 305 | 0.0 | 1.6 | 0.00 | 0.00 | 0.00 | 77 | 1015.7 |
| 20260505100107 | 12 | 261 | 0.0 | 0.0 | 0.00 | 0.00 | 0.00 | 77 | 1015.9 |
| 20260505095105 | 13 | 261 | 0.0 | 0.0 | 0.00 | 0.00 | 0.00 | 74 | 1015.4 |
| 20260505094104 | 13 | 262 | 0.0 | 0.0 | 0.00 | 0.00 | 0.00 | 70 | 1015.8 |
| 20260505093104 | 14 | 265 | 1.6 | 1.6 | 0.00 | 0.00 | 0.00 | 69 | 1015.4 |
| 20260505092100 | 14 | 263 | 0.0 | 0.0 | 0.00 | 0.00 | 0.00 | 69 | 1015.5 |
| 20260505091054 | 14 | 277 | 3.2 | 3.2 | 0.00 | 0.00 | 0.00 | 69 | 1015.4 |
| 20260505090049 | 14 | 265 | 0.0 | 0.0 | 0.00 | 0.00 | 0.00 | 70 | 1015.6 |
| 20260505085045 | 14 | 258 | 1.6 | 1.6 | 0.00 | 0.00 | 0.00 | 69 | 1015.2 |
| 20260505084041 | 14 | 240 | 1.6 | 1.6 | 0.00 | 0.00 | 0.00 | 70 | 1015.2 |
| 20260505083040 | 15 | 258 | 0.0 | 0.0 | 0.00 | 0.00 | 0.00 | 69 | 1015.4 |
| 20260505082039 | 15 | 257 | 0.0 | 1.6 | 0.00 | 0.00 | 0.00 | 69 | 1015.3 |
| 20260505081038 | 15 | 253 | 1.6 | 1.6 | 0.00 | 0.00 | 0.00 | 69 | 1015.2 |
| 20260505080037 | 15 | 261 | 0.0 | 1.6 | 0.00 | 0.00 | 0.00 | 69 | 1015.1 |
| 20260505075036 | 15 | 256 | 0.0 | 1.6 | 0.00 | 0.00 | 0.00 | 68 | 1015.0 |
| 20260505074036 | 15 | 262 | 1.6 | 1.6 | 0.00 | 0.00 | 0.00 | 68 | 1014.8 |
| 20260505073032 | 15 | 265 | 0.0 | 1.6 | 0.00 | 0.00 | 0.00 | 67 | 1015.0 |
| 20260505072029 | 15 | 266 | 1.6 | 3.2 | 0.00 | 0.00 | 0.00 | 67 | 1015.2 |
| 20260505071029 | 15 | 271 | 0.0 | 0.0 | 0.00 | 0.00 | 0.00 | 67 | 1015.3 |
| 20260505070027 | 15 | 257 | 0.0 | 1.6 | 0.00 | 0.00 | 0.00 | 67 | 1015.3 |
| 20260505065025 | 15 | 254 | 1.6 | 1.6 | 0.00 | 0.00 | 0.00 | 67 | 1015.1 |
| 20260505064021 | 15 | 268 | 1.6 | 1.6 | 0.00 | 0.00 | 0.00 | 67 | 1015.4 |
| 20260505063019 | 16 | 266 | 0.0 | 0.0 | 0.00 | 0.00 | 0.00 | 67 | 1015.2 |
| 20260505062020 | 16 | 256 | 0.0 | 1.6 | 0.00 | 0.00 | 0.00 | 67 | 1015.3 |
| 20260505061015 | 16 | 260 | 0.0 | 1.6 | 0.00 | 0.00 | 0.00 | 66 | 1015.3 |
| 20260505060014 | 16 | 266 | 0.0 | 0.0 | 0.00 | 0.00 | 0.00 | 66 | 1015.2 |
| 20260505055012 | 16 | 265 | 0.0 | 1.6 | 0.00 | 0.00 | 0.00 | 65 | 1015.2 |
| 20260505054008 | 16 | 255 | 0.0 | 1.6 | 0.00 | 0.00 | 0.00 | 64 | 1015.4 |
| 20260505053007 | 17 | 270 | 1.6 | 3.2 | 0.00 | 0.00 | 0.00 | 63 | 1015.1 |
| 20260505052007 | 17 | 264 | 3.2 | 3.2 | 0.00 | 0.00 | 0.00 | 63 | 1015.1 |
| 20260505051002 | 17 | 266 | 3.2 | 4.8 | 0.00 | 0.00 | 0.00 | 63 | 1015.0 |
| 20260505041000 | 17 | 270 | 1.6 | 1.6 | 0.00 | 0.00 | 0.00 | 62 | 1015.0 |
| 20260505040000 | 17 | 256 | 1.6 | 1.6 | 0.00 | 0.00 | 0.00 | 62 | 1015.0 |
| 20260505034959 | 18 | 273 | 0.0 | 1.6 | 0.00 | 0.00 | 0.00 | 61 | 1015.0 |
| 20260505033958 | 18 | 265 | 3.2 | 3.2 | 0.00 | 0.00 | 0.00 | 60 | 1015.0 |
| 20260505032953 | 18 | 262 | 1.6 | 3.2 | 0.00 | 0.00 | 0.00 | 60 | 1014.8 |
| 20260505031952 | 18 | 249 | 1.6 | 1.6 | 0.00 | 0.00 | 0.00 | 60 | 1014.9 |
| 20260505030952 | 18 | 275 | 3.2 | 4.8 | 0.00 | 0.00 | 0.00 | 60 | 1015.0 |
| 20260505025949 | 18 | 264 | 1.6 | 1.6 | 0.00 | 0.00 | 0.00 | 60 | 1015.0 |
| 20260505024945 | 18 | 258 | 1.6 | 1.6 | 0.00 | 0.00 | 0.00 | 60 | 1015.1 |
| 20260505023945 | 18 | 254 | 1.6 | 1.6 | 0.00 | 0.00 | 0.00 | 59 | 1015.0 |
| 20260505022946 | 18 | 256 | 1.6 | 1.6 | 0.00 | 0.00 | 0.00 | 58 | 1015.2 |
| 20260505021940 | 19 | 260 | 1.6 | 1.6 | 0.00 | 0.00 | 0.00 | 57 | 1015.0 |
| 20260505020938 | 19 | 258 | 1.6 | 1.6 | 0.00 | 0.00 | 0.00 | 57 | 1015.2 |
| 20260505015936 | 19 | 259 | 3.2 | 4.8 | 0.00 | 0.00 | 0.00 | 56 | 1015.1 |
| 20260505014931 | 20 | 266 | 0.0 | 1.6 | 0.00 | 0.00 | 0.00 | 56 | 1014.8 |
| 20260505013930 | 20 | 264 | 1.6 | 3.2 | 0.00 | 0.00 | 0.00 | 55 | 1014.9 |
| 20260505012925 | 20 | 269 | 3.2 | 3.2 | 0.00 | 0.00 | 0.00 | 54 | 1014.7 |
| 20260505011925 | 20 | 248 | 4.8 | 4.8 | 0.00 | 0.00 | 0.00 | 54 | 1014.9 |
| 20260505010924 | 20 | 257 | 3.2 | 3.2 | 0.00 | 0.00 | 0.00 | 54 | 1014.7 |
| 20260505005922 | 21 | 250 | 3.2 | 3.2 | 0.00 | 0.00 | 0.00 | 54 | 1014.6 |
| 20260505004922 | 21 | 284 | 8.0 | 11.3 | 0.00 | 0.00 | 0.00 | 53 | 1014.5 |
| 20260505003921 | 21 | 234 | 4.8 | 4.8 | 0.00 | 0.00 | 0.00 | 53 | 1014.8 |
| 20260505002920 | 21 | 285 | 4.8 | 4.8 | 0.00 | 0.00 | 0.00 | 54 | 1014.3 |
| 20260505001915 | 21 | 280 | 3.2 | 3.2 | 0.00 | 0.00 | 0.00 | 55 | 1014.4 |
| 20260505000910 | 21 | 249 | 1.6 | 1.6 | 0.00 | 0.00 | 0.00 | 54 | 1014.3 |
| 20260504235910 | 21 | 261 | 4.8 | 4.8 | 0.00 | 0.00 | 0.00 | 54 | 1014.3 |
| 20260504234909 | 22 | 275 | 1.6 | 1.6 | 0.00 | 0.00 | 0.00 | 54 | 1014.5 |
| 20260504233909 | 22 | 281 | 3.2 | 4.8 | 0.00 | 0.00 | 0.00 | 53 | 1014.5 |
| 20260504232907 | 22 | 254 | 8.0 | 9.7 | 0.00 | 0.00 | 0.00 | 51 | 1014.2 |
| 20260504231907 | 22 | 269 | 1.6 | 3.2 | 0.00 | 0.00 | 0.00 | 52 | 1014.1 |
| 20260504230906 | 22 | 330 | 4.8 | 8.0 | 0.00 | 0.00 | 0.00 | 49 | 1014.4 |
| 20260504225902 | 23 | 257 | 3.2 | 3.2 | 0.00 | 0.00 | 0.00 | 48 | 1014.2 |
| 20260504224902 | 23 | 247 | 9.7 | 14.5 | 0.00 | 0.00 | 0.00 | 47 | 1014.0 |
| 20260504223901 | 23 | 238 | 4.8 | 8.0 | 0.00 | 0.00 | 0.00 | 48 | 1014.1 |
| 20260504222858 | 23 | 270 | 3.2 | 3.2 | 0.00 | 0.00 | 0.00 | 47 | 1014.1 |
| 20260504221854 | 23 | 263 | 6.4 | 8.0 | 0.00 | 0.00 | 0.00 | 48 | 1014.0 |
| 20260504220854 | 24 | 244 | 1.6 | 3.2 | 0.00 | 0.00 | 0.00 | 48 | 1014.1 |
| 20260504215853 | 23 | 287 | 4.8 | 4.8 | 0.00 | 0.00 | 0.00 | 50 | 1014.2 |
| 20260504214851 | 23 | 279 | 1.6 | 1.6 | 0.00 | 0.00 | 0.00 | 50 | 1014.4 |
| 20260504213850 | 23 | 282 | 0.0 | 0.0 | 0.00 | 0.00 | 0.00 | 49 | 1014.5 |
| 20260504212850 | 24 | 156 | 3.2 | 4.8 | 0.00 | 0.00 | 0.00 | 48 | 1014.4 |
| 20260504211849 | 24 | 293 | 3.2 | 3.2 | 0.00 | 0.00 | 0.00 | 50 | 1014.5 |
| 20260504210849 | 23 | 259 | 1.6 | 1.6 | 0.00 | 0.00 | 0.00 | 48 | 1014.6 |
| 20260504205849 | 24 | 267 | 1.6 | 1.6 | 0.00 | 0.00 | 0.00 | 48 | 1014.7 |
| 20260504204844 | 25 | 288 | 1.6 | 1.6 | 0.00 | 0.00 | 0.00 | 48 | 1014.8 |
| 20260504203842 | 25 | 256 | 9.7 | 11.3 | 0.00 | 0.00 | 0.00 | 45 | 1014.9 |
| 20260504202840 | 25 | 289 | 0.0 | 1.6 | 0.00 | 0.00 | 0.00 | 47 | 1014.9 |
| 20260504201839 | 25 | 289 | 1.6 | 1.6 | 0.00 | 0.00 | 0.00 | 46 | 1015.0 |
| 20260504200834 | 25 | 320 | 1.6 | 1.6 | 0.00 | 0.00 | 0.00 | 46 | 1015.1 |
| 20260504195833 | 25 | 216 | 3.2 | 4.8 | 0.00 | 0.00 | 0.00 | 49 | 1015.3 |
| 20260504194831 | 25 | 186 | 4.8 | 4.8 | 0.00 | 0.00 | 0.00 | 48 | 1015.4 |
| 20260504193829 | 25 | 256 | 12.9 | 17.7 | 0.00 | 0.00 | 0.00 | 48 | 1015.3 |
| 20260504192825 | 25 | 302 | 4.8 | 8.0 | 0.00 | 0.00 | 0.00 | 48 | 1015.7 |
| 20260504191821 | 25 | 323 | 3.2 | 3.2 | 0.00 | 0.00 | 0.00 | 47 | 1015.7 |
| 20260504190819 | 23 | 325 | 3.2 | 3.2 | 0.00 | 0.00 | 0.00 | 49 | 1015.9 |
| 20260504185818 | 24 | 257 | 3.2 | 3.2 | 0.00 | 0.00 | 0.00 | 49 | 1016.3 |
| 20260504184817 | 23 | 308 | 3.2 | 3.2 | 0.00 | 0.00 | 0.00 | 53 | 1016.2 |
| 20260504183815 | 23 | 285 | 11.3 | 16.1 | 0.00 | 0.00 | 0.00 | 49 | 1016.4 |
| 20260504182810 | 23 | 274 | 0.0 | 1.6 | 0.00 | 0.00 | 0.00 | 51 | 1016.5 |
| 20260504181810 | 23 | 311 | 1.6 | 1.6 | 0.00 | 0.00 | 0.00 | 50 | 1016.7 |
| 20260504180807 | 23 | 256 | 3.2 | 3.2 | 0.00 | 0.00 | 0.00 | 50 | 1016.7 |
| 20260504175802 | 23 | 270 | 8.0 | 11.3 | 0.00 | 0.00 | 0.00 | 51 | 1016.9 |
| 20260504174803 | 23 | 280 | 1.6 | 1.6 | 0.00 | 0.00 | 0.00 | 50 | 1017.0 |
| 20260504173802 | 23 | 276 | 4.8 | 9.7 | 0.00 | 0.00 | 0.00 | 49 | 1017.1 |
| 20260504172802 | 22 | 219 | 6.4 | 9.7 | 0.00 | 0.00 | 0.00 | 49 | 1017.3 |
| 20260504171800 | 22 | 293 | 1.6 | 1.6 | 0.00 | 0.00 | 0.00 | 52 | 1017.4 |
| 20260504170755 | 22 | 293 | 3.2 | 3.2 | 0.00 | 0.00 | 0.00 | 52 | 1017.4 |